Terminal Aerodrome Forecast
Issued by NWS

Home | Current Version | Previous Version | Text Only | Print | Product List | Glossary On
Versions: 1 2 3 4 5 6 7 8 9 10 11 12 13 14 15 16 17 18 19 20 21 22 23 24 25 26 27 28
000
FTUS43 KDVN 250600 AAA
TAFCID
TAF AMD
KCID 250608Z 2506/2606 04005KT 2SM BR VCSH OVC007
     FM250800 VRB04KT 2SM BR OVC004
     FM251500 24012KT 6SM BR BKN015
     FM252000 31012KT P6SM SCT020 BKN050=

USA.gov is the U.S. government's official web portal to all federal, state and local government web resources and services.